sensor_id;sensor_type;location;lat;lon;timestamp;pressure;altitude;pressure_sealevel;temperature;humidity
30618;BME280;17384;51.214;9.202;2023-04-30T00:01:00;99283.34;;;3.12;90.34
30618;BME280;17384;51.214;9.202;2023-04-30T00:03:26;99289.16;;;3.07;90.94
30618;BME280;17384;51.214;9.202;2023-04-30T00:05:52;99274.72;;;3.00;90.78
30618;BME280;17384;51.214;9.202;2023-04-30T00:08:17;99283.97;;;3.05;91.56
30618;BME280;17384;51.214;9.202;2023-04-30T00:10:43;99277.28;;;3.10;91.77
30618;BME280;17384;51.214;9.202;2023-04-30T00:13:08;99281.97;;;3.08;92.12
30618;BME280;17384;51.214;9.202;2023-04-30T00:15:34;99289.13;;;2.99;92.14
30618;BME280;17384;51.214;9.202;2023-04-30T00:18:00;99288.59;;;2.95;92.08
30618;BME280;17384;51.214;9.202;2023-04-30T00:20:26;99282.63;;;2.84;91.48
30618;BME280;17384;51.214;9.202;2023-04-30T00:22:51;99291.91;;;2.71;91.58
30618;BME280;17384;51.214;9.202;2023-04-30T00:25:17;99291.75;;;2.73;91.66
30618;BME280;17384;51.214;9.202;2023-04-30T00:27:42;99293.66;;;2.63;91.17
30618;BME280;17384;51.214;9.202;2023-04-30T00:30:08;99291.28;;;2.60;90.75
30618;BME280;17384;51.214;9.202;2023-04-30T00:32:33;99296.69;;;2.50;91.22
30618;BME280;17384;51.214;9.202;2023-04-30T00:34:58;99304.28;;;2.55;91.83
30618;BME280;17384;51.214;9.202;2023-04-30T00:37:24;99299.31;;;2.60;92.20
30618;BME280;17384;51.214;9.202;2023-04-30T00:39:49;99305.75;;;2.67;92.60
30618;BME280;17384;51.214;9.202;2023-04-30T00:42:15;99311.50;;;2.72;93.03
30618;BME280;17384;51.214;9.202;2023-04-30T00:44:40;99301.28;;;2.76;93.12
30618;BME280;17384;51.214;9.202;2023-04-30T00:47:06;99307.72;;;2.83;93.42
30618;BME280;17384;51.214;9.202;2023-04-30T00:49:31;99313.94;;;2.83;93.49
30618;BME280;17384;51.214;9.202;2023-04-30T00:51:57;99312.16;;;2.74;92.19
30618;BME280;17384;51.214;9.202;2023-04-30T00:54:23;99321.56;;;2.43;91.52
30618;BME280;17384;51.214;9.202;2023-04-30T00:56:49;99321.63;;;2.51;91.37
30618;BME280;17384;51.214;9.202;2023-04-30T00:59:15;99313.53;;;2.43;91.51
30618;BME280;17384;51.214;9.202;2023-04-30T01:01:40;99321.78;;;2.31;92.18
30618;BME280;17384;51.214;9.202;2023-04-30T01:04:06;99310.59;;;2.18;92.31
30618;BME280;17384;51.214;9.202;2023-04-30T01:06:32;99334.47;;;2.02;92.49
30618;BME280;17384;51.214;9.202;2023-04-30T01:08:57;99313.28;;;1.91;92.66
30618;BME280;17384;51.214;9.202;2023-04-30T01:14:15;99329.34;;;1.91;93.40
30618;BME280;17384;51.214;9.202;2023-04-30T01:16:47;99329.22;;;1.83;93.71
30618;BME280;17384;51.214;9.202;2023-04-30T01:19:22;99339.50;;;1.78;94.00
30618;BME280;17384;51.214;9.202;2023-04-30T01:21:55;99322.03;;;1.83;93.76
30618;BME280;17384;51.214;9.202;2023-04-30T01:30:10;99339.81;;;1.65;92.75
30618;BME280;17384;51.214;9.202;2023-04-30T01:32:36;99332.50;;;1.67;93.00
30618;BME280;17384;51.214;9.202;2023-04-30T01:35:01;99334.03;;;1.69;92.84
30618;BME280;17384;51.214;9.202;2023-04-30T01:37:59;99333.59;;;1.74;92.80
30618;BME280;17384;51.214;9.202;2023-04-30T01:40:46;99329.09;;;1.75;92.83
30618;BME280;17384;51.214;9.202;2023-04-30T01:43:36;99341.19;;;1.79;92.69
30618;BME280;17384;51.214;9.202;2023-04-30T01:46:26;99336.13;;;1.76;92.22
30618;BME280;17384;51.214;9.202;2023-04-30T01:51:36;99330.81;;;1.66;92.22
30618;BME280;17384;51.214;9.202;2023-04-30T01:54:11;99335.91;;;1.59;91.94
30618;BME280;17384;51.214;9.202;2023-04-30T01:56:45;99326.09;;;1.50;92.18
30618;BME280;17384;51.214;9.202;2023-04-30T01:59:13;99340.16;;;1.52;92.67
30618;BME280;17384;51.214;9.202;2023-04-30T02:01:39;99339.59;;;1.49;92.87
30618;BME280;17384;51.214;9.202;2023-04-30T02:04:04;99333.81;;;1.53;93.23
30618;BME280;17384;51.214;9.202;2023-04-30T02:06:30;99337.34;;;1.54;93.38
30618;BME280;17384;51.214;9.202;2023-04-30T02:08:56;99337.91;;;1.57;93.65
30618;BME280;17384;51.214;9.202;2023-04-30T02:11:27;99327.91;;;1.59;93.98
30618;BME280;17384;51.214;9.202;2023-04-30T02:13:52;99326.63;;;1.63;93.91
30618;BME280;17384;51.214;9.202;2023-04-30T02:16:18;99345.50;;;1.62;93.43
30618;BME280;17384;51.214;9.202;2023-04-30T02:18:44;99338.75;;;1.48;92.07
30618;BME280;17384;51.214;9.202;2023-04-30T02:21:09;99344.97;;;1.39;92.01
30618;BME280;17384;51.214;9.202;2023-04-30T02:23:35;99330.59;;;1.40;92.13
30618;BME280;17384;51.214;9.202;2023-04-30T02:26:00;99330.38;;;1.33;92.01
30618;BME280;17384;51.214;9.202;2023-04-30T02:28:27;99332.47;;;1.11;92.33
30618;BME280;17384;51.214;9.202;2023-04-30T02:30:52;99334.34;;;1.00;92.57
30618;BME280;17384;51.214;9.202;2023-04-30T02:33:18;99323.38;;;0.94;93.08
30618;BME280;17384;51.214;9.202;2023-04-30T02:35:43;99329.28;;;0.97;93.39
30618;BME280;17384;51.214;9.202;2023-04-30T02:38:09;99328.44;;;1.07;93.57
30618;BME280;17384;51.214;9.202;2023-04-30T02:40:34;99339.50;;;1.12;93.50
30618;BME280;17384;51.214;9.202;2023-04-30T02:43:00;99328.97;;;1.10;93.63
30618;BME280;17384;51.214;9.202;2023-04-30T02:45:25;99330.13;;;1.08;93.36
30618;BME280;17384;51.214;9.202;2023-04-30T02:47:51;99338.00;;;0.99;93.18
30618;BME280;17384;51.214;9.202;2023-04-30T02:50:16;99326.19;;;0.92;93.64
30618;BME280;17384;51.214;9.202;2023-04-30T02:52:44;99334.75;;;0.96;93.75
30618;BME280;17384;51.214;9.202;2023-04-30T02:55:11;99324.66;;;0.99;93.73
30618;BME280;17384;51.214;9.202;2023-04-30T02:57:36;99325.06;;;0.85;93.70
30618;BME280;17384;51.214;9.202;2023-04-30T03:00:02;99325.78;;;0.78;94.20
30618;BME280;17384;51.214;9.202;2023-04-30T03:02:28;99335.75;;;0.76;94.36
30618;BME280;17384;51.214;9.202;2023-04-30T03:04:54;99348.94;;;0.87;94.19
30618;BME280;17384;51.214;9.202;2023-04-30T03:07:19;99347.84;;;0.89;94.03
30618;BME280;17384;51.214;9.202;2023-04-30T03:09:45;99344.47;;;0.87;93.94
30618;BME280;17384;51.214;9.202;2023-04-30T03:12:10;99358.69;;;0.78;94.00
30618;BME280;17384;51.214;9.202;2023-04-30T03:14:36;99350.50;;;0.70;94.17
30618;BME280;17384;51.214;9.202;2023-04-30T03:17:01;99359.09;;;0.74;93.80
30618;BME280;17384;51.214;9.202;2023-04-30T03:19:27;99349.81;;;0.78;93.35
30618;BME280;17384;51.214;9.202;2023-04-30T03:21:53;99350.38;;;0.72;93.00
30618;BME280;17384;51.214;9.202;2023-04-30T03:24:19;99352.47;;;0.68;93.17
30618;BME280;17384;51.214;9.202;2023-04-30T03:26:45;99361.47;;;0.67;93.06
30618;BME280;17384;51.214;9.202;2023-04-30T03:29:11;99356.13;;;0.67;93.25
30618;BME280;17384;51.214;9.202;2023-04-30T03:31:37;99358.78;;;0.67;93.19
30618;BME280;17384;51.214;9.202;2023-04-30T03:34:02;99363.28;;;0.66;93.33
30618;BME280;17384;51.214;9.202;2023-04-30T03:36:28;99367.22;;;0.62;93.31
30618;BME280;17384;51.214;9.202;2023-04-30T03:38:53;99367.50;;;0.59;93.25
30618;BME280;17384;51.214;9.202;2023-04-30T03:41:19;99366.06;;;0.55;93.30
30618;BME280;17384;51.214;9.202;2023-04-30T03:43:44;99369.28;;;0.40;93.48
30618;BME280;17384;51.214;9.202;2023-04-30T03:46:10;99371.38;;;0.36;94.17
30618;BME280;17384;51.214;9.202;2023-04-30T03:48:35;99360.97;;;0.33;94.64
30618;BME280;17384;51.214;9.202;2023-04-30T03:51:01;99366.06;;;0.46;95.19
30618;BME280;17384;51.214;9.202;2023-04-30T03:53:26;99369.19;;;0.51;95.48
30618;BME280;17384;51.214;9.202;2023-04-30T03:55:52;99361.31;;;0.59;95.56
30618;BME280;17384;51.214;9.202;2023-04-30T03:58:19;99360.88;;;0.63;95.77
30618;BME280;17384;51.214;9.202;2023-04-30T04:00:45;99359.78;;;0.66;96.50
30618;BME280;17384;51.214;9.202;2023-04-30T04:03:12;99370.88;;;0.71;96.70
30618;BME280;17384;51.214;9.202;2023-04-30T04:05:38;99359.09;;;0.74;97.08
30618;BME280;17384;51.214;9.202;2023-04-30T04:08:04;99360.34;;;0.79;97.44
30618;BME280;17384;51.214;9.202;2023-04-30T04:10:31;99370.06;;;0.80;97.65
30618;BME280;17384;51.214;9.202;2023-04-30T04:12:56;99363.03;;;0.79;97.89
30618;BME280;17384;51.214;9.202;2023-04-30T04:15:21;99365.00;;;0.77;97.83
30618;BME280;17384;51.214;9.202;2023-04-30T04:17:47;99368.78;;;0.75;98.03
30618;BME280;17384;51.214;9.202;2023-04-30T04:20:13;99364.69;;;0.71;97.97
30618;BME280;17384;51.214;9.202;2023-04-30T04:22:38;99360.59;;;0.57;97.73
30618;BME280;17384;51.214;9.202;2023-04-30T04:25:04;99363.44;;;0.65;97.93
30618;BME280;17384;51.214;9.202;2023-04-30T04:27:30;99363.25;;;0.57;97.90
30618;BME280;17384;51.214;9.202;2023-04-30T04:29:55;99369.75;;;0.54;97.72
30618;BME280;17384;51.214;9.202;2023-04-30T04:32:21;99375.91;;;0.55;98.09
30618;BME280;17384;51.214;9.202;2023-04-30T04:34:47;99368.19;;;0.61;98.18
30618;BME280;17384;51.214;9.202;2023-04-30T04:37:13;99368.34;;;0.70;97.97
30618;BME280;17384;51.214;9.202;2023-04-30T04:39:39;99370.34;;;0.77;97.71
30618;BME280;17384;51.214;9.202;2023-04-30T04:42:05;99376.25;;;0.81;97.72
30618;BME280;17384;51.214;9.202;2023-04-30T04:44:30;99370.19;;;0.79;97.84
30618;BME280;17384;51.214;9.202;2023-04-30T04:46:56;99380.59;;;0.91;97.81
30618;BME280;17384;51.214;9.202;2023-04-30T04:49:22;99389.28;;;1.13;97.18
30618;BME280;17384;51.214;9.202;2023-04-30T04:51:48;99378.47;;;1.24;96.36
30618;BME280;17384;51.214;9.202;2023-04-30T04:54:13;99386.78;;;1.30;95.80
30618;BME280;17384;51.214;9.202;2023-04-30T04:56:39;99382.25;;;1.41;95.41
30618;BME280;17384;51.214;9.202;2023-04-30T04:59:04;99389.56;;;1.48;95.28
30618;BME280;17384;51.214;9.202;2023-04-30T05:01:30;99395.88;;;1.57;94.31
30618;BME280;17384;51.214;9.202;2023-04-30T05:03:55;99396.88;;;1.56;93.73
30618;BME280;17384;51.214;9.202;2023-04-30T05:06:21;99397.72;;;1.56;93.25
30618;BME280;17384;51.214;9.202;2023-04-30T05:08:46;99410.09;;;1.57;93.54
30618;BME280;17384;51.214;9.202;2023-04-30T05:11:12;99408.13;;;1.59;94.31
30618;BME280;17384;51.214;9.202;2023-04-30T05:13:37;99421.44;;;1.79;95.59
30618;BME280;17384;51.214;9.202;2023-04-30T05:16:03;99405.03;;;2.01;96.14
30618;BME280;17384;51.214;9.202;2023-04-30T05:18:29;99406.47;;;2.23;96.33
30618;BME280;17384;51.214;9.202;2023-04-30T05:20:54;99420.94;;;2.40;96.85
30618;BME280;17384;51.214;9.202;2023-04-30T05:23:19;99421.13;;;2.56;96.93
30618;BME280;17384;51.214;9.202;2023-04-30T05:25:50;99426.69;;;2.45;96.17
30618;BME280;17384;51.214;9.202;2023-04-30T05:28:16;99426.75;;;2.80;95.62
30618;BME280;17384;51.214;9.202;2023-04-30T05:30:41;99426.41;;;2.93;94.56
30618;BME280;17384;51.214;9.202;2023-04-30T05:33:07;99436.97;;;2.94;94.54
30618;BME280;17384;51.214;9.202;2023-04-30T05:35:32;99432.28;;;3.32;95.05
30618;BME280;17384;51.214;9.202;2023-04-30T05:38:00;99428.66;;;3.77;94.88
30618;BME280;17384;51.214;9.202;2023-04-30T05:40:27;99434.00;;;4.28;95.61
30618;BME280;17384;51.214;9.202;2023-04-30T05:42:52;99433.16;;;4.62;95.11
30618;BME280;17384;51.214;9.202;2023-04-30T05:45:18;99436.97;;;5.01;94.37
30618;BME280;17384;51.214;9.202;2023-04-30T05:47:43;99431.28;;;5.21;93.42
30618;BME280;17384;51.214;9.202;2023-04-30T05:50:09;99427.94;;;5.35;89.10
30618;BME280;17384;51.214;9.202;2023-04-30T05:52:34;99426.59;;;5.63;87.87
30618;BME280;17384;51.214;9.202;2023-04-30T05:55:00;99422.91;;;5.97;86.89
30618;BME280;17384;51.214;9.202;2023-04-30T05:57:25;99426.38;;;6.22;86.81
30618;BME280;17384;51.214;9.202;2023-04-30T05:59:51;99444.75;;;6.65;86.74
30618;BME280;17384;51.214;9.202;2023-04-30T06:02:16;99439.72;;;7.01;85.27
30618;BME280;17384;51.214;9.202;2023-04-30T06:04:41;99432.66;;;7.46;83.05
30618;BME280;17384;51.214;9.202;2023-04-30T06:07:08;99438.16;;;7.75;81.45
30618;BME280;17384;51.214;9.202;2023-04-30T06:09:34;99432.81;;;7.67;79.31
30618;BME280;17384;51.214;9.202;2023-04-30T06:11:59;99432.34;;;7.87;78.93
30618;BME280;17384;51.214;9.202;2023-04-30T06:14:26;99432.72;;;7.61;78.25
30618;BME280;17384;51.214;9.202;2023-04-30T06:16:52;99418.19;;;7.99;75.83
30618;BME280;17384;51.214;9.202;2023-04-30T06:19:18;99432.66;;;8.21;77.23
30618;BME280;17384;51.214;9.202;2023-04-30T06:21:43;99428.63;;;8.02;78.56
30618;BME280;17384;51.214;9.202;2023-04-30T06:24:08;99425.38;;;8.07;79.49
30618;BME280;17384;51.214;9.202;2023-04-30T06:26:34;99433.22;;;8.31;79.83
30618;BME280;17384;51.214;9.202;2023-04-30T06:29:00;99435.59;;;8.49;78.73
30618;BME280;17384;51.214;9.202;2023-04-30T06:31:25;99428.22;;;8.72;76.57
30618;BME280;17384;51.214;9.202;2023-04-30T06:33:51;99422.03;;;8.93;76.19
30618;BME280;17384;51.214;9.202;2023-04-30T06:36:16;99432.06;;;9.35;75.53
30618;BME280;17384;51.214;9.202;2023-04-30T06:38:43;99436.16;;;9.67;72.88
30618;BME280;17384;51.214;9.202;2023-04-30T06:41:09;99429.53;;;9.98;71.57
30618;BME280;17384;51.214;9.202;2023-04-30T06:43:35;99433.22;;;10.39;70.38
30618;BME280;17384;51.214;9.202;2023-04-30T06:46:00;99430.19;;;10.56;69.75
30618;BME280;17384;51.214;9.202;2023-04-30T06:48:25;99434.81;;;10.62;68.49
30618;BME280;17384;51.214;9.202;2023-04-30T06:50:51;99425.81;;;11.02;67.32
30618;BME280;17384;51.214;9.202;2023-04-30T06:53:17;99426.50;;;11.17;67.66
30618;BME280;17384;51.214;9.202;2023-04-30T06:55:44;99438.91;;;11.46;64.67
30618;BME280;17384;51.214;9.202;2023-04-30T06:58:11;99430.75;;;11.60;65.77
30618;BME280;17384;51.214;9.202;2023-04-30T07:00:36;99429.34;;;12.10;63.61
30618;BME280;17384;51.214;9.202;2023-04-30T07:03:02;99437.47;;;11.64;63.01
30618;BME280;17384;51.214;9.202;2023-04-30T07:05:31;99431.78;;;11.39;63.71
30618;BME280;17384;51.214;9.202;2023-04-30T07:07:59;99441.16;;;11.30;63.93
30618;BME280;17384;51.214;9.202;2023-04-30T07:10:25;99435.72;;;11.30;62.39
30618;BME280;17384;51.214;9.202;2023-04-30T07:12:51;99435.22;;;11.06;63.30
30618;BME280;17384;51.214;9.202;2023-04-30T07:15:16;99438.31;;;10.97;64.42
30618;BME280;17384;51.214;9.202;2023-04-30T07:17:42;99439.25;;;11.24;65.37
30618;BME280;17384;51.214;9.202;2023-04-30T07:20:08;99433.94;;;11.76;63.47
30618;BME280;17384;51.214;9.202;2023-04-30T07:22:34;99422.00;;;12.43;60.15
30618;BME280;17384;51.214;9.202;2023-04-30T07:24:59;99428.34;;;12.95;58.77
30618;BME280;17384;51.214;9.202;2023-04-30T07:27:28;99424.03;;;13.32;58.17
30618;BME280;17384;51.214;9.202;2023-04-30T07:29:54;99429.38;;;13.45;58.25
30618;BME280;17384;51.214;9.202;2023-04-30T07:32:20;99429.16;;;13.78;58.71
30618;BME280;17384;51.214;9.202;2023-04-30T07:34:46;99430.22;;;13.46;59.07
30618;BME280;17384;51.214;9.202;2023-04-30T07:37:12;99430.47;;;13.69;58.14
30618;BME280;17384;51.214;9.202;2023-04-30T07:39:38;99442.91;;;13.27;57.72
30618;BME280;17384;51.214;9.202;2023-04-30T07:42:04;99430.41;;;14.07;55.74
30618;BME280;17384;51.214;9.202;2023-04-30T07:44:30;99438.31;;;14.40;55.11
30618;BME280;17384;51.214;9.202;2023-04-30T07:46:56;99432.13;;;14.27;55.97
30618;BME280;17384;51.214;9.202;2023-04-30T07:49:21;99439.91;;;14.73;54.08
30618;BME280;17384;51.214;9.202;2023-04-30T07:51:47;99434.63;;;15.08;51.52
30618;BME280;17384;51.214;9.202;2023-04-30T07:54:12;99442.84;;;15.26;50.98
30618;BME280;17384;51.214;9.202;2023-04-30T07:56:38;99439.28;;;15.55;51.15
30618;BME280;17384;51.214;9.202;2023-04-30T07:59:04;99444.06;;;16.02;49.08
30618;BME280;17384;51.214;9.202;2023-04-30T08:01:30;99440.19;;;14.83;51.92
30618;BME280;17384;51.214;9.202;2023-04-30T08:03:55;99432.88;;;15.13;53.90
30618;BME280;17384;51.214;9.202;2023-04-30T08:06:20;99438.91;;;15.52;52.95
30618;BME280;17384;51.214;9.202;2023-04-30T08:08:47;99444.63;;;15.80;51.51
30618;BME280;17384;51.214;9.202;2023-04-30T08:11:12;99439.13;;;16.57;49.12
30618;BME280;17384;51.214;9.202;2023-04-30T08:13:37;99439.00;;;16.52;48.69
30618;BME280;17384;51.214;9.202;2023-04-30T08:16:03;99440.66;;;16.41;48.49
30618;BME280;17384;51.214;9.202;2023-04-30T08:18:29;99427.19;;;16.51;46.63
30618;BME280;17384;51.214;9.202;2023-04-30T08:20:56;99424.25;;;16.65;46.42
30618;BME280;17384;51.214;9.202;2023-04-30T08:23:21;99434.94;;;16.08;50.32
30618;BME280;17384;51.214;9.202;2023-04-30T08:25:47;99434.56;;;16.16;50.87
30618;BME280;17384;51.214;9.202;2023-04-30T08:28:12;99428.88;;;16.41;50.27
30618;BME280;17384;51.214;9.202;2023-04-30T08:30:38;99414.06;;;17.00;48.48
30618;BME280;17384;51.214;9.202;2023-04-30T08:33:04;99418.28;;;16.79;48.39
30618;BME280;17384;51.214;9.202;2023-04-30T08:35:29;99418.03;;;16.92;48.85
30618;BME280;17384;51.214;9.202;2023-04-30T08:37:55;99417.19;;;16.69;48.07
30618;BME280;17384;51.214;9.202;2023-04-30T08:40:20;99423.63;;;16.86;49.88
30618;BME280;17384;51.214;9.202;2023-04-30T08:42:56;99423.84;;;17.36;48.14
30618;BME280;17384;51.214;9.202;2023-04-30T08:45:24;99420.31;;;17.81;47.92
30618;BME280;17384;51.214;9.202;2023-04-30T08:47:51;99419.81;;;17.67;49.09
30618;BME280;17384;51.214;9.202;2023-04-30T08:50:16;99425.75;;;17.92;47.11
30618;BME280;17384;51.214;9.202;2023-04-30T08:52:42;99423.94;;;18.32;47.11
30618;BME280;17384;51.214;9.202;2023-04-30T08:55:08;99418.75;;;17.28;48.11
30618;BME280;17384;51.214;9.202;2023-04-30T08:57:36;99414.59;;;17.99;47.74
30618;BME280;17384;51.214;9.202;2023-04-30T09:00:03;99419.50;;;18.14;46.29
30618;BME280;17384;51.214;9.202;2023-04-30T09:02:31;99421.59;;;18.23;46.13
30618;BME280;17384;51.214;9.202;2023-04-30T09:04:57;99417.00;;;18.46;46.80
30618;BME280;17384;51.214;9.202;2023-04-30T09:07:23;99410.84;;;18.39;45.66
30618;BME280;17384;51.214;9.202;2023-04-30T09:09:52;99410.03;;;18.05;45.48
30618;BME280;17384;51.214;9.202;2023-04-30T09:12:18;99407.25;;;17.71;46.77
30618;BME280;17384;51.214;9.202;2023-04-30T09:15:03;99409.81;;;18.78;45.24
30618;BME280;17384;51.214;9.202;2023-04-30T09:17:30;99408.91;;;18.73;45.66
30618;BME280;17384;51.214;9.202;2023-04-30T09:20:09;99417.03;;;19.28;42.78
30618;BME280;17384;51.214;9.202;2023-04-30T09:22:36;99408.91;;;19.60;42.93
30618;BME280;17384;51.214;9.202;2023-04-30T09:25:02;99413.31;;;20.25;42.74
30618;BME280;17384;51.214;9.202;2023-04-30T09:27:28;99413.63;;;19.43;42.18
30618;BME280;17384;51.214;9.202;2023-04-30T09:29:54;99405.75;;;18.47;44.38
30618;BME280;17384;51.214;9.202;2023-04-30T09:32:20;99406.13;;;19.87;41.99
30618;BME280;17384;51.214;9.202;2023-04-30T09:34:47;99401.00;;;19.47;42.29
30618;BME280;17384;51.214;9.202;2023-04-30T09:37:13;99399.44;;;20.10;42.38
30618;BME280;17384;51.214;9.202;2023-04-30T09:39:54;99404.53;;;20.28;42.75
30618;BME280;17384;51.214;9.202;2023-04-30T09:42:20;99385.03;;;20.35;39.54
30618;BME280;17384;51.214;9.202;2023-04-30T09:44:52;99391.41;;;19.49;41.70
30618;BME280;17384;51.214;9.202;2023-04-30T09:47:19;99391.19;;;19.29;40.13
30618;BME280;17384;51.214;9.202;2023-04-30T09:49:50;99385.34;;;18.05;43.67
30618;BME280;17384;51.214;9.202;2023-04-30T09:52:20;99382.34;;;18.45;43.35
30618;BME280;17384;51.214;9.202;2023-04-30T09:54:46;99392.66;;;19.37;42.88
30618;BME280;17384;51.214;9.202;2023-04-30T09:57:15;99388.16;;;19.79;42.27
30618;BME280;17384;51.214;9.202;2023-04-30T09:59:45;99383.91;;;19.93;42.34
30618;BME280;17384;51.214;9.202;2023-04-30T10:02:15;99386.50;;;19.78;40.25
30618;BME280;17384;51.214;9.202;2023-04-30T10:04:44;99390.84;;;19.47;42.04
30618;BME280;17384;51.214;9.202;2023-04-30T10:07:19;99391.44;;;19.27;42.85
30618;BME280;17384;51.214;9.202;2023-04-30T10:10:05;99381.59;;;18.49;42.78
30618;BME280;17384;51.214;9.202;2023-04-30T10:12:41;99385.66;;;18.25;44.02
30618;BME280;17384;51.214;9.202;2023-04-30T10:15:34;99372.81;;;18.31;43.12
30618;BME280;17384;51.214;9.202;2023-04-30T10:18:30;99372.34;;;18.00;43.88
30618;BME280;17384;51.214;9.202;2023-04-30T10:20:59;99373.28;;;17.04;45.36
30618;BME280;17384;51.214;9.202;2023-04-30T10:23:28;99369.41;;;18.23;44.93
30618;BME280;17384;51.214;9.202;2023-04-30T10:25:56;99364.81;;;18.84;44.56
30618;BME280;17384;51.214;9.202;2023-04-30T10:28:22;99365.72;;;19.92;43.31
30618;BME280;17384;51.214;9.202;2023-04-30T10:30:49;99363.63;;;19.24;43.51
30618;BME280;17384;51.214;9.202;2023-04-30T10:33:22;99353.19;;;20.12;40.84
30618;BME280;17384;51.214;9.202;2023-04-30T10:36:00;99365.63;;;20.51;40.50
30618;BME280;17384;51.214;9.202;2023-04-30T10:38:30;99353.06;;;20.76;40.45
30618;BME280;17384;51.214;9.202;2023-04-30T10:41:00;99354.81;;;20.97;37.81
30618;BME280;17384;51.214;9.202;2023-04-30T10:43:29;99352.50;;;21.61;37.38
30618;BME280;17384;51.214;9.202;2023-04-30T10:45:56;99344.38;;;21.19;38.03
30618;BME280;17384;51.214;9.202;2023-04-30T10:48:28;99347.97;;;20.15;41.00
30618;BME280;17384;51.214;9.202;2023-04-30T10:51:01;99344.72;;;20.66;38.82
30618;BME280;17384;51.214;9.202;2023-04-30T10:53:30;99339.47;;;21.26;38.31
30618;BME280;17384;51.214;9.202;2023-04-30T10:56:04;99343.69;;;21.70;37.86
30618;BME280;17384;51.214;9.202;2023-04-30T10:58:39;99329.03;;;22.20;35.81
30618;BME280;17384;51.214;9.202;2023-04-30T11:01:17;99334.59;;;21.84;36.88
30618;BME280;17384;51.214;9.202;2023-04-30T11:04:17;99328.97;;;21.23;37.96
30618;BME280;17384;51.214;9.202;2023-04-30T11:07:07;99330.09;;;21.38;36.69
30618;BME280;17384;51.214;9.202;2023-04-30T11:09:39;99330.94;;;19.86;37.65
30618;BME280;17384;51.214;9.202;2023-04-30T11:12:18;99328.88;;;19.45;38.76
30618;BME280;17384;51.214;9.202;2023-04-30T11:14:45;99332.19;;;20.06;38.73
30618;BME280;17384;51.214;9.202;2023-04-30T11:17:20;99323.31;;;20.88;38.46
30618;BME280;17384;51.214;9.202;2023-04-30T11:19:52;99313.66;;;20.90;36.03
30618;BME280;17384;51.214;9.202;2023-04-30T11:22:22;99326.16;;;21.18;37.38
30618;BME280;17384;51.214;9.202;2023-04-30T11:27:23;99314.56;;;20.44;38.58
30618;BME280;17384;51.214;9.202;2023-04-30T11:29:50;99306.00;;;19.12;39.22
30618;BME280;17384;51.214;9.202;2023-04-30T11:32:18;99313.63;;;19.32;41.17
30618;BME280;17384;51.214;9.202;2023-04-30T11:34:46;99320.88;;;19.43;38.65
30618;BME280;17384;51.214;9.202;2023-04-30T11:37:17;99303.41;;;20.76;37.48
30618;BME280;17384;51.214;9.202;2023-04-30T11:39:44;99302.22;;;21.34;35.64
30618;BME280;17384;51.214;9.202;2023-04-30T11:42:18;99310.69;;;21.07;35.24
30618;BME280;17384;51.214;9.202;2023-04-30T11:44:44;99293.59;;;21.15;36.34
30618;BME280;17384;51.214;9.202;2023-04-30T11:47:14;99295.47;;;20.89;36.79
30618;BME280;17384;51.214;9.202;2023-04-30T11:49:41;99290.38;;;21.44;36.48
30618;BME280;17384;51.214;9.202;2023-04-30T11:52:07;99285.09;;;21.37;35.72
30618;BME280;17384;51.214;9.202;2023-04-30T11:54:37;99292.47;;;19.59;37.82
30618;BME280;17384;51.214;9.202;2023-04-30T11:57:04;99280.91;;;20.00;37.95
30618;BME280;17384;51.214;9.202;2023-04-30T11:59:31;99271.78;;;19.57;38.39
30618;BME280;17384;51.214;9.202;2023-04-30T12:02:05;99282.91;;;19.13;39.79
30618;BME280;17384;51.214;9.202;2023-04-30T12:04:31;99283.84;;;20.30;37.72
30618;BME280;17384;51.214;9.202;2023-04-30T12:06:56;99278.06;;;20.79;36.62
30618;BME280;17384;51.214;9.202;2023-04-30T12:09:22;99279.59;;;19.38;38.57
30618;BME280;17384;51.214;9.202;2023-04-30T12:11:48;99277.66;;;18.85;38.75
30618;BME280;17384;51.214;9.202;2023-04-30T12:14:14;99272.03;;;18.53;38.17
30618;BME280;17384;51.214;9.202;2023-04-30T12:16:44;99266.31;;;19.03;37.41
30618;BME280;17384;51.214;9.202;2023-04-30T12:19:12;99257.78;;;20.43;36.69
30618;BME280;17384;51.214;9.202;2023-04-30T12:21:38;99271.09;;;20.14;37.63
30618;BME280;17384;51.214;9.202;2023-04-30T12:24:05;99264.44;;;19.36;37.61
30618;BME280;17384;51.214;9.202;2023-04-30T12:26:35;99272.00;;;19.50;38.15
30618;BME280;17384;51.214;9.202;2023-04-30T12:29:07;99253.50;;;19.78;36.67
30618;BME280;17384;51.214;9.202;2023-04-30T12:31:32;99259.56;;;19.80;38.12
30618;BME280;17384;51.214;9.202;2023-04-30T12:34:02;99258.34;;;20.45;37.94
30618;BME280;17384;51.214;9.202;2023-04-30T12:36:30;99249.38;;;19.80;38.85
30618;BME280;17384;51.214;9.202;2023-04-30T12:39:05;99249.56;;;20.06;38.32
30618;BME280;17384;51.214;9.202;2023-04-30T12:41:44;99256.16;;;20.47;36.55
30618;BME280;17384;51.214;9.202;2023-04-30T12:44:21;99243.38;;;21.03;36.11
30618;BME280;17384;51.214;9.202;2023-04-30T12:46:48;99248.34;;;21.16;36.57
30618;BME280;17384;51.214;9.202;2023-04-30T12:49:32;99237.31;;;21.01;35.80
30618;BME280;17384;51.214;9.202;2023-04-30T12:52:01;99249.84;;;20.51;37.22
30618;BME280;17384;51.214;9.202;2023-04-30T12:54:28;99232.31;;;20.98;36.40
30618;BME280;17384;51.214;9.202;2023-04-30T12:59:23;99235.94;;;20.36;36.99
30618;BME280;17384;51.214;9.202;2023-04-30T13:01:49;99232.78;;;20.65;36.97
30618;BME280;17384;51.214;9.202;2023-04-30T13:04:14;99225.94;;;20.87;36.47
30618;BME280;17384;51.214;9.202;2023-04-30T13:06:39;99225.88;;;20.62;36.66
30618;BME280;17384;51.214;9.202;2023-04-30T13:09:05;99232.63;;;20.34;37.97
30618;BME280;17384;51.214;9.202;2023-04-30T13:11:30;99210.63;;;19.87;37.57
30618;BME280;17384;51.214;9.202;2023-04-30T13:13:56;99222.38;;;20.24;38.12
30618;BME280;17384;51.214;9.202;2023-04-30T13:16:22;99210.81;;;19.75;37.63
30618;BME280;17384;51.214;9.202;2023-04-30T13:18:48;99217.88;;;19.61;38.66
30618;BME280;17384;51.214;9.202;2023-04-30T13:21:13;99211.78;;;20.48;36.74
30618;BME280;17384;51.214;9.202;2023-04-30T13:23:39;99205.03;;;21.17;34.86